Time;durP1;ratioP1;P1;durP2;ratioP2;P2;SDS_P1;SDS_P2;PMS_P1;PMS_P2;Temp;Humidity;BMP_temperature;BMP_pressure;BME280_temperature;BME280_humidity;BME280_pressure;Samples;Min_cycle;Max_cycle;Signal;HPM_P1;HPM_P2
2021/10/02 00:01:29;;;;;;;6.50;2.97;;;12.40;87.70;;;;;;5073786;28;20199;-86
2021/10/02 00:44:53;;;;;;;8.33;3.90;;;12.30;90.20;;;;;;5073619;28;20167;-86
2021/10/02 00:47:21;;;;;;;8.07;4.07;;;12.20;90.30;;;;;;5073284;28;20631;-86
2021/10/02 00:49:48;;;;;;;6.10;4.20;;;12.30;90.20;;;;;;5071721;28;20203;-86
2021/10/02 00:52:15;;;;;;;8.30;4.10;;;12.20;90.40;;;;;;5073101;28;20534;-86
2021/10/02 00:54:42;;;;;;;8.97;4.53;;;12.20;90.50;;;;;;5076312;28;20642;-87
2021/10/02 00:57:09;;;;;;;6.93;4.63;;;12.30;90.60;;;;;;5076949;28;20171;-86
2021/10/02 00:59:36;;;;;;;6.77;4.60;;;12.30;90.60;;;;;;5076631;28;20736;-87
2021/10/02 01:02:10;;;;;;;8.43;5.40;;;12.30;90.50;;;;;;5076797;28;20174;-87
2021/10/02 01:04:56;;;;;;;12.40;6.27;;;12.30;90.60;;;;;;5076774;28;20170;-86
2021/10/02 01:07:31;;;;;;;11.50;6.30;;;12.30;90.80;;;;;;5077045;28;20156;-86
2021/10/02 01:09:59;;;;;;;7.77;5.77;;;12.30;90.70;;;;;;5075367;28;20210;-86
2021/10/02 01:12:43;;;;;;;8.63;6.60;;;12.30;91.00;;;;;;5076458;28;20178;-86
2021/10/02 01:15:13;;;;;;;9.47;6.33;;;12.30;91.20;;;;;;5075846;28;20186;-86
2021/10/02 01:17:50;;;;;;;10.13;6.10;;;12.30;91.20;;;;;;5076595;28;20203;-86
2021/10/02 01:20:30;;;;;;;14.40;7.37;;;12.30;91.40;;;;;;5075156;28;20181;-86
2021/10/02 01:23:45;;;;;;;9.67;6.67;;;12.30;91.60;;;;;;5075115;28;20186;-86
2021/10/02 01:26:29;;;;;;;11.10;6.80;;;12.30;91.70;;;;;;5063482;28;20187;-86
2021/10/02 01:28:57;;;;;;;10.37;7.40;;;12.30;91.80;;;;;;5075521;28;20195;-86
2021/10/02 01:31:35;;;;;;;14.83;8.13;;;12.30;91.90;;;;;;5076118;28;20195;-86
2021/10/02 01:34:15;;;;;;;11.73;8.00;;;12.30;92.00;;;;;;5076207;28;20148;-86
2021/10/02 01:36:57;;;;;;;12.03;8.97;;;12.30;92.00;;;;;;5074864;28;20171;-86
2021/10/02 01:47:50;;;;;;;15.37;9.90;;;12.30;92.10;;;;;;5076423;28;20166;-86
2021/10/02 01:50:20;;;;;;;16.80;9.27;;;12.30;91.90;;;;;;5075867;28;20187;-86
2021/10/02 01:52:47;;;;;;;14.67;9.87;;;12.30;92.00;;;;;;5075799;28;20210;-86
2021/10/02 01:55:13;;;;;;;14.77;9.63;;;12.30;92.00;;;;;;5075904;28;20182;-86
2021/10/02 01:57:42;;;;;;;14.13;10.27;;;12.30;92.00;;;;;;5074278;28;20175;-86
2021/10/02 02:00:10;;;;;;;13.73;10.07;;;12.30;91.90;;;;;;5074360;28;20679;-86
2021/10/02 02:02:39;;;;;;;13.33;10.67;;;12.30;92.00;;;;;;5074479;28;20175;-86
2021/10/02 02:05:07;;;;;;;14.03;10.10;;;12.40;91.90;;;;;;5073087;28;20546;-86
2021/10/02 02:07:36;;;;;;;18.57;10.53;;;12.40;91.80;;;;;;5074214;28;20176;-86
2021/10/02 02:10:05;;;;;;;14.27;10.50;;;12.40;91.80;;;;;;5075725;28;20187;-86
2021/10/02 02:12:33;;;;;;;12.00;9.77;;;12.40;91.80;;;;;;5075444;28;20580;-86
2021/10/02 02:15:08;;;;;;;14.33;10.50;;;12.40;91.60;;;;;;5075783;28;20180;-86
2021/10/02 02:17:46;;;;;;;13.60;10.57;;;12.40;91.70;;;;;;5074058;28;20175;-86
2021/10/02 02:20:20;;;;;;;15.47;10.40;;;12.40;91.70;;;;;;5074133;28;20182;-86
2021/10/02 02:22:48;;;;;;;16.63;11.17;;;12.40;91.60;;;;;;5074159;28;20168;-86
2021/10/02 02:25:13;;;;;;;18.73;10.63;;;12.50;91.50;;;;;;5075012;28;20190;-86
2021/10/02 02:27:39;;;;;;;22.40;11.63;;;12.50;91.50;;;;;;5073884;28;20183;-86
2021/10/02 02:30:05;;;;;;;16.30;10.60;;;12.40;91.60;;;;;;5075338;28;20192;-86
2021/10/02 02:32:32;;;;;;;22.00;11.60;;;12.50;91.50;;;;;;5073856;28;20167;-86
2021/10/02 02:34:58;;;;;;;18.00;11.27;;;12.50;91.40;;;;;;5074696;28;20536;-86
2021/10/02 02:37:23;;;;;;;13.83;11.30;;;12.50;91.40;;;;;;5073791;28;20171;-86
2021/10/02 02:39:49;;;;;;;17.33;11.27;;;12.50;91.50;;;;;;5074831;28;20206;-86
2021/10/02 02:42:16;;;;;;;23.83;13.73;;;12.50;91.50;;;;;;5073672;28;20272;-87
2021/10/02 02:44:41;;;;;;;19.63;11.90;;;12.50;91.50;;;;;;5074826;28;20182;-86
2021/10/02 02:47:14;;;;;;;19.90;13.23;;;12.50;91.60;;;;;;5075221;28;20543;-86
2021/10/02 02:49:48;;;;;;;18.07;13.70;;;12.50;91.60;;;;;;5073359;28;20203;-86
2021/10/02 02:52:37;;;;;;;19.50;13.83;;;12.50;91.50;;;;;;5075079;28;20242;-86
2021/10/02 02:55:09;;;;;;;20.20;14.83;;;12.50;91.40;;;;;;5074701;28;20588;-86
2021/10/02 02:57:48;;;;;;;17.10;13.03;;;12.50;91.40;;;;;;5074630;28;20152;-86
2021/10/02 03:00:17;;;;;;;26.03;14.67;;;12.60;91.40;;;;;;5073225;28;20187;-86
2021/10/02 03:02:59;;;;;;;23.50;15.50;;;12.50;91.40;;;;;;5073310;28;20593;-86
2021/10/02 03:05:28;;;;;;;20.17;14.40;;;12.60;91.30;;;;;;5074411;28;20170;-86
2021/10/02 03:08:08;;;;;;;21.43;14.93;;;12.60;91.40;;;;;;5074531;28;20191;-86
2021/10/02 03:10:35;;;;;;;25.10;16.40;;;12.60;91.40;;;;;;5072970;28;20240;-86
2021/10/02 03:13:07;;;;;;;23.83;16.20;;;12.60;91.50;;;;;;5074243;28;20682;-86
2021/10/02 03:15:35;;;;;;;27.43;16.93;;;12.50;91.40;;;;;;5073836;28;20199;-86
2021/10/02 03:18:01;;;;;;;27.77;17.00;;;12.60;91.40;;;;;;5072812;28;20188;-86
2021/10/02 03:20:28;;;;;;;30.20;16.10;;;12.60;91.40;;;;;;5072882;28;20669;-86
2021/10/02 03:22:55;;;;;;;21.00;15.57;;;12.60;91.40;;;;;;5073113;28;20543;-86
2021/10/02 03:25:25;;;;;;;23.33;16.53;;;12.60;91.40;;;;;;5072787;28;20176;-86
2021/10/02 03:27:56;;;;;;;25.33;15.83;;;12.60;91.40;;;;;;5073912;28;20187;-86
2021/10/02 03:30:22;;;;;;;25.63;16.77;;;12.70;91.30;;;;;;5072637;28;20558;-86
2021/10/02 03:32:50;;;;;;;25.97;16.70;;;12.70;91.20;;;;;;5072617;28;20168;-86
2021/10/02 03:35:18;;;;;;;27.17;17.47;;;12.70;91.20;;;;;;5072598;28;20197;-86
2021/10/02 03:37:43;;;;;;;26.43;17.63;;;12.70;91.20;;;;;;5072503;28;20171;-86
2021/10/02 03:40:10;;;;;;;26.77;18.30;;;12.70;91.30;;;;;;5073065;28;20670;-86
2021/10/02 03:43:05;;;;;;;31.87;18.23;;;12.70;91.30;;;;;;5072447;28;20178;-86
2021/10/02 03:45:30;;;;;;;21.27;17.57;;;12.70;91.40;;;;;;5068287;28;20237;-86
2021/10/02 03:47:57;;;;;;;24.00;18.87;;;12.70;91.40;;;;;;5072331;28;20212;-86
2021/10/02 03:50:23;;;;;;;30.20;20.50;;;12.70;91.40;;;;;;5073168;28;20198;-86
2021/10/02 03:52:49;;;;;;;32.73;20.07;;;12.70;91.40;;;;;;5072375;28;20637;-86
2021/10/02 03:55:16;;;;;;;32.70;22.07;;;12.80;91.40;;;;;;5072351;28;20205;-86
2021/10/02 03:57:42;;;;;;;30.20;20.50;;;12.70;91.40;;;;;;5073416;28;20259;-86
2021/10/02 04:00:10;;;;;;;28.90;20.03;;;12.80;91.30;;;;;;5073410;28;20183;-87
2021/10/02 04:02:37;;;;;;;34.00;22.20;;;12.70;91.10;;;;;;5072207;28;20553;-87
2021/10/02 04:05:03;;;;;;;26.40;20.43;;;12.80;91.20;;;;;;5073422;28;20266;-86
2021/10/02 04:07:29;;;;;;;27.80;20.73;;;12.80;91.20;;;;;;5073303;28;20360;-86
2021/10/02 04:09:54;;;;;;;24.73;20.20;;;12.80;91.10;;;;;;5072093;28;20544;-86
2021/10/02 04:12:20;;;;;;;24.90;19.67;;;12.80;91.20;;;;;;5072035;28;20175;-86
2021/10/02 04:14:48;;;;;;;22.23;17.80;;;12.80;91.20;;;;;;5072085;28;20175;-86
2021/10/02 04:17:14;;;;;;;26.77;19.40;;;12.80;91.10;;;;;;5072145;28;20195;-86
2021/10/02 04:19:41;;;;;;;33.97;21.03;;;12.80;91.20;;;;;;5073220;28;20187;-86
2021/10/02 04:22:07;;;;;;;26.10;20.97;;;12.80;91.30;;;;;;5072337;28;20175;-86
2021/10/02 04:24:33;;;;;;;33.27;21.30;;;12.80;91.30;;;;;;5071941;28;20639;-86
2021/10/02 04:26:59;;;;;;;30.37;19.93;;;12.80;91.30;;;;;;5072026;28;20181;-87
2021/10/02 04:29:28;;;;;;;23.73;18.50;;;12.70;91.40;;;;;;5071267;28;20287;-87
2021/10/02 04:31:55;;;;;;;24.37;17.90;;;12.70;91.40;;;;;;5071985;28;20209;-87
2021/10/02 04:34:21;;;;;;;26.67;17.47;;;12.70;91.40;;;;;;5071856;28;20250;-87
2021/10/02 04:36:47;;;;;;;28.37;15.93;;;12.70;91.40;;;;;;5071981;28;20717;-87
2021/10/02 04:39:13;;;;;;;21.00;16.00;;;12.70;91.40;;;;;;5072101;28;20191;-87
2021/10/02 04:41:38;;;;;;;26.33;17.40;;;12.70;91.50;;;;;;5071858;28;20627;-87
2021/10/02 04:44:05;;;;;;;22.23;17.33;;;12.70;91.40;;;;;;5071831;28;20171;-87
2021/10/02 04:46:31;;;;;;;25.20;15.60;;;12.70;91.40;;;;;;5072972;28;20258;-87
2021/10/02 04:48:56;;;;;;;20.10;14.60;;;12.70;91.30;;;;;;5072200;28;20226;-87
2021/10/02 04:51:22;;;;;;;25.40;16.07;;;12.70;91.40;;;;;;5071760;28;20545;-87
2021/10/02 04:53:48;;;;;;;19.47;14.77;;;12.60;91.50;;;;;;5071703;28;20203;-87
2021/10/02 04:56:14;;;;;;;17.37;13.80;;;12.60;91.40;;;;;;5071747;28;20639;-87
2021/10/02 04:58:40;;;;;;;17.97;12.70;;;12.60;91.40;;;;;;5071576;28;20238;-86
2021/10/02 05:01:07;;;;;;;19.10;13.50;;;12.50;91.20;;;;;;5071725;28;20178;-87
2021/10/02 05:03:40;;;;;;;19.37;13.50;;;12.60;91.20;;;;;;5073122;28;20690;-87
2021/10/02 05:06:07;;;;;;;18.50;12.43;;;12.60;91.00;;;;;;5072879;28;20168;-87
2021/10/02 05:08:34;;;;;;;20.93;12.70;;;12.60;90.90;;;;;;5072732;28;20264;-87
2021/10/02 05:11:00;;;;;;;20.43;12.90;;;12.60;90.90;;;;;;5071443;28;20609;-87
2021/10/02 05:13:27;;;;;;;17.03;12.97;;;12.60;90.90;;;;;;5071654;28;20174;-87
2021/10/02 05:15:53;;;;;;;16.30;12.13;;;12.60;90.80;;;;;;5072774;28;20234;-87
2021/10/02 05:18:19;;;;;;;18.07;13.97;;;12.60;90.70;;;;;;5071486;28;20244;-87
2021/10/02 05:20:45;;;;;;;19.73;12.17;;;12.60;90.80;;;;;;5072729;28;20258;-86
2021/10/02 05:23:10;;;;;;;20.97;13.77;;;12.50;90.60;;;;;;5071359;28;20175;-86
2021/10/02 05:25:37;;;;;;;17.70;11.27;;;12.60;90.70;;;;;;5072938;28;20178;-86
2021/10/02 05:28:03;;;;;;;20.60;13.30;;;12.60;90.60;;;;;;5071380;28;20214;-86
2021/10/02 05:30:29;;;;;;;19.93;13.00;;;12.60;90.60;;;;;;5071886;28;20249;-86
2021/10/02 05:32:54;;;;;;;22.23;13.17;;;12.60;90.70;;;;;;5071363;28;20643;-86
2021/10/02 05:35:20;;;;;;;21.37;13.03;;;12.60;90.70;;;;;;5071604;28;20184;-86
2021/10/02 05:37:47;;;;;;;20.03;12.93;;;12.50;90.60;;;;;;5071248;28;20171;-86
2021/10/02 05:40:13;;;;;;;23.13;13.37;;;12.60;90.70;;;;;;5074125;28;20693;-86
2021/10/02 05:42:39;;;;;;;19.17;13.27;;;12.60;90.70;;;;;;5076035;28;20604;-86
2021/10/02 05:45:06;;;;;;;19.13;13.13;;;12.60;90.80;;;;;;5075962;28;20186;-86
2021/10/02 05:47:33;;;;;;;20.23;13.63;;;12.60;90.60;;;;;;5074537;28;20179;-86
2021/10/02 05:49:59;;;;;;;20.20;12.67;;;12.60;90.70;;;;;;5074636;28;20248;-86
2021/10/02 05:52:25;;;;;;;16.50;12.97;;;12.50;90.60;;;;;;5074591;28;20175;-86
2021/10/02 05:54:51;;;;;;;17.63;12.67;;;12.60;90.70;;;;;;5074522;28;20696;-87
2021/10/02 05:57:17;;;;;;;19.60;12.10;;;12.60;90.70;;;;;;5074540;28;20186;-86
2021/10/02 05:59:43;;;;;;;27.70;13.90;;;12.60;90.70;;;;;;5076181;28;20211;-86
2021/10/02 06:02:09;;;;;;;24.50;14.77;;;12.60;90.70;;;;;;5076231;28;20266;-86
2021/10/02 06:04:34;;;;;;;22.90;14.40;;;12.60;90.70;;;;;;5074470;28;20270;-86
2021/10/02 06:07:00;;;;;;;25.53;15.67;;;12.60;90.70;;;;;;5074594;28;20179;-87
2021/10/02 06:09:26;;;;;;;27.27;17.70;;;12.70;90.70;;;;;;5075364;28;20198;-86
2021/10/02 06:11:52;;;;;;;25.50;16.47;;;12.60;91.00;;;;;;5075558;28;20658;-86
2021/10/02 06:14:17;;;;;;;28.00;17.97;;;12.60;91.00;;;;;;5075409;28;20631;-86
2021/10/02 06:16:43;;;;;;;32.27;19.67;;;12.70;91.10;;;;;;5074195;28;20176;-86
2021/10/02 06:19:09;;;;;;;36.97;18.10;;;12.70;91.20;;;;;;5074405;28;20214;-86
2021/10/02 06:21:35;;;;;;;34.63;20.97;;;12.60;91.20;;;;;;5075342;28;20183;-86
2021/10/02 06:24:02;;;;;;;37.57;23.37;;;12.70;91.20;;;;;;5073997;28;20175;-86
2021/10/02 06:26:29;;;;;;;36.87;23.27;;;12.70;91.30;;;;;;5073903;28;20190;-86
2021/10/02 06:28:55;;;;;;;42.10;23.97;;;12.70;91.30;;;;;;5075497;28;20607;-86
2021/10/02 06:31:22;;;;;;;37.27;23.57;;;12.70;91.50;;;;;;5073807;28;20203;-86
2021/10/02 06:33:48;;;;;;;45.33;24.73;;;12.80;91.50;;;;;;5075061;28;20173;-86
2021/10/02 06:36:13;;;;;;;47.63;25.87;;;12.80;91.80;;;;;;5075370;28;20171;-86
2021/10/02 06:38:39;;;;;;;44.10;25.07;;;12.70;91.90;;;;;;5073720;28;20211;-86
2021/10/02 06:41:05;;;;;;;49.77;26.37;;;12.70;91.90;;;;;;5074963;28;20187;-86
2021/10/02 06:43:31;;;;;;;44.77;25.77;;;12.80;91.90;;;;;;5073619;28;20187;-86
2021/10/02 06:45:58;;;;;;;42.90;23.53;;;12.80;91.90;;;;;;5073625;28;20635;-86
2021/10/02 06:48:24;;;;;;;50.70;25.93;;;12.80;92.00;;;;;;5074204;28;20601;-86
2021/10/02 06:50:49;;;;;;;49.97;26.83;;;12.80;92.10;;;;;;5072808;28;20214;-86
2021/10/02 06:53:15;;;;;;;42.43;23.23;;;12.80;92.00;;;;;;5074716;28;20179;-86
2021/10/02 06:55:42;;;;;;;47.50;27.00;;;12.80;91.90;;;;;;5074698;28;20176;-86
2021/10/02 06:58:08;;;;;;;43.37;24.77;;;12.80;91.90;;;;;;5074486;28;20670;-87
2021/10/02 07:00:34;;;;;;;49.73;26.13;;;12.80;92.00;;;;;;5074570;28;20167;-87
2021/10/02 07:03:00;;;;;;;52.87;24.50;;;12.80;92.00;;;;;;5073232;28;20608;-87
2021/10/02 07:05:26;;;;;;;40.87;23.87;;;12.80;91.80;;;;;;5074403;28;20175;-87
2021/10/02 07:07:51;;;;;;;45.87;24.60;;;12.80;91.90;;;;;;5074320;28;20195;-87
2021/10/02 07:10:20;;;;;;;46.07;24.50;;;12.80;91.90;;;;;;5073107;28;20815;-87
2021/10/02 07:12:46;;;;;;;53.17;24.97;;;12.90;91.90;;;;;;5074281;28;20201;-86
2021/10/02 07:15:12;;;;;;;47.47;25.50;;;12.90;91.90;;;;;;5073036;28;20180;-87
2021/10/02 07:17:37;;;;;;;45.03;23.37;;;13.00;91.80;;;;;;5074523;28;20221;-87
2021/10/02 07:20:04;;;;;;;46.20;24.17;;;12.90;91.70;;;;;;5072895;28;20179;-86
2021/10/02 07:22:35;;;;;;;50.07;25.47;;;13.00;91.80;;;;;;5074011;28;20187;-86
2021/10/02 07:25:02;;;;;;;48.50;25.10;;;13.00;91.70;;;;;;5072920;28;20228;-87
2021/10/02 07:27:28;;;;;;;47.27;24.33;;;13.00;91.50;;;;;;5074010;28;20190;-87
2021/10/02 07:29:54;;;;;;;41.67;23.33;;;13.10;91.60;;;;;;5073941;28;20195;-87
2021/10/02 07:32:20;;;;;;;46.73;25.10;;;13.10;91.60;;;;;;5072741;28;20187;-87
2021/10/02 07:34:46;;;;;;;42.87;24.77;;;13.00;91.60;;;;;;5073910;28;20257;-87
2021/10/02 07:37:11;;;;;;;49.60;24.80;;;13.10;91.50;;;;;;5074155;28;20711;-87
2021/10/02 07:39:37;;;;;;;36.10;22.67;;;13.10;91.60;;;;;;5072613;28;20225;-87
2021/10/02 07:42:03;;;;;;;39.03;21.90;;;13.10;91.40;;;;;;5072478;28;20175;-87
2021/10/02 07:44:30;;;;;;;36.87;22.00;;;13.10;91.40;;;;;;5072580;28;20176;-87
2021/10/02 07:46:57;;;;;;;38.43;22.70;;;13.20;91.30;;;;;;5073139;28;20179;-87
2021/10/02 07:49:24;;;;;;;33.33;21.13;;;13.20;91.40;;;;;;5073752;28;20191;-87
2021/10/02 07:51:50;;;;;;;35.20;20.47;;;13.20;91.20;;;;;;5072352;28;20183;-87
2021/10/02 07:54:18;;;;;;;36.87;21.17;;;13.20;91.20;;;;;;5072561;28;20199;-87
2021/10/02 07:56:44;;;;;;;33.53;21.13;;;13.20;91.10;;;;;;5072273;28;20202;-87
2021/10/02 07:59:13;;;;;;;30.10;21.17;;;13.30;91.00;;;;;;5072441;28;20674;-87
2021/10/02 08:01:39;;;;;;;30.93;20.03;;;13.30;91.10;;;;;;5073338;28;20258;-87
2021/10/02 08:04:06;;;;;;;32.70;20.63;;;13.30;90.80;;;;;;5072108;28;20613;-88
2021/10/02 08:06:33;;;;;;;30.63;21.13;;;13.50;91.00;;;;;;5073512;28;20182;-87
2021/10/02 08:08:59;;;;;;;31.47;20.03;;;13.50;90.80;;;;;;5073428;28;20194;-87
2021/10/02 08:11:26;;;;;;;39.27;22.43;;;13.50;90.80;;;;;;5073340;28;20199;-87
2021/10/02 08:13:53;;;;;;;25.87;19.63;;;13.50;90.60;;;;;;5072194;28;20688;-87
2021/10/02 08:16:19;;;;;;;27.97;19.53;;;13.50;90.60;;;;;;5073460;28;20175;-87
2021/10/02 08:18:48;;;;;;;31.43;20.43;;;13.60;90.70;;;;;;5072053;28;20547;-87
2021/10/02 08:21:14;;;;;;;28.23;20.47;;;13.60;90.40;;;;;;5073339;28;20203;-87
2021/10/02 08:23:42;;;;;;;26.03;18.37;;;13.70;90.60;;;;;;5073170;28;20175;-87
2021/10/02 08:26:14;;;;;;;35.47;19.73;;;13.70;90.10;;;;;;5073030;28;20179;-86
2021/10/02 08:28:46;;;;;;;31.30;21.07;;;13.70;90.30;;;;;;5071902;28;20203;-87
2021/10/02 08:31:15;;;;;;;27.47;18.83;;;13.80;89.80;;;;;;5073493;28;20225;-87
2021/10/02 08:33:41;;;;;;;29.97;20.60;;;13.80;90.10;;;;;;5071863;28;20179;-87
2021/10/02 08:36:07;;;;;;;23.20;18.30;;;13.80;89.90;;;;;;5071880;28;20274;-87
2021/10/02 08:38:32;;;;;;;26.37;18.20;;;13.90;89.70;;;;;;5071912;28;20282;-87
2021/10/02 08:40:58;;;;;;;26.63;19.60;;;13.90;89.50;;;;;;5071883;28;20636;-86
2021/10/02 08:43:25;;;;;;;22.50;17.40;;;13.90;89.70;;;;;;5071836;28;20175;-87
2021/10/02 08:45:51;;;;;;;24.90;18.07;;;13.90;89.50;;;;;;5071758;28;20179;-87
2021/10/02 08:48:18;;;;;;;23.90;17.70;;;14.00;89.50;;;;;;5072889;28;20274;-86
2021/10/02 08:50:45;;;;;;;19.30;17.23;;;14.00;89.20;;;;;;5071694;28;20261;-87
2021/10/02 08:53:12;;;;;;;25.27;18.70;;;14.00;89.40;;;;;;5073126;28;20184;-87
2021/10/02 08:55:38;;;;;;;24.87;18.30;;;14.10;89.40;;;;;;5071752;28;20176;-87
2021/10/02 08:58:04;;;;;;;21.03;16.97;;;14.10;89.40;;;;;;5071497;28;20244;-87
2021/10/02 09:00:31;;;;;;;21.20;17.03;;;14.10;89.00;;;;;;5071692;28;20650;-87
2021/10/02 09:02:57;;;;;;;16.03;12.17;;;14.20;88.70;;;;;;5072891;28;20659;-87
2021/10/02 09:05:25;;;;;;;21.37;15.63;;;14.20;88.40;;;;;;5072855;28;20187;-87
2021/10/02 09:07:55;;;;;;;18.83;15.63;;;14.30;88.30;;;;;;5073032;28;20195;-87
2021/10/02 09:10:22;;;;;;;18.77;15.37;;;14.30;88.20;;;;;;5071526;28;20663;-87
2021/10/02 09:12:48;;;;;;;18.40;15.93;;;14.30;88.10;;;;;;5072784;28;20171;-87
2021/10/02 09:15:15;;;;;;;19.40;14.53;;;14.40;87.40;;;;;;5075492;28;20163;-87
2021/10/02 09:17:42;;;;;;;21.33;15.10;;;14.40;87.50;;;;;;5075221;28;20207;-87
2021/10/02 09:20:09;;;;;;;17.80;14.40;;;14.40;87.50;;;;;;5075278;28;20274;-87
2021/10/02 09:22:36;;;;;;;17.60;13.63;;;14.50;88.20;;;;;;5075118;28;20187;-87
2021/10/02 09:25:04;;;;;;;21.77;15.27;;;14.50;87.60;;;;;;5075101;28;20266;-87
2021/10/02 09:27:32;;;;;;;17.10;13.80;;;14.50;87.90;;;;;;5074989;28;20260;-86
2021/10/02 09:29:59;;;;;;;16.90;14.17;;;14.30;87.30;;;;;;5076238;28;20223;-86
2021/10/02 09:32:32;;;;;;;17.50;14.13;;;14.40;87.00;;;;;;5076247;28;20201;-87
2021/10/02 09:34:59;;;;;;;18.73;14.43;;;14.40;87.40;;;;;;5076158;28;20289;-86
2021/10/02 09:37:33;;;;;;;16.90;12.87;;;14.50;87.60;;;;;;5076165;28;20175;-87
2021/10/02 09:40:10;;;;;;;16.87;13.10;;;14.50;87.10;;;;;;5074903;28;20171;-86
2021/10/02 09:42:38;;;;;;;19.33;12.23;;;14.60;87.00;;;;;;5074921;28;20179;-86
2021/10/02 09:45:09;;;;;;;13.33;11.83;;;14.70;86.90;;;;;;5074769;28;20179;-87
2021/10/02 09:47:35;;;;;;;17.33;11.13;;;14.80;86.40;;;;;;5074661;28;20180;-86
2021/10/02 09:50:08;;;;;;;18.50;9.87;;;14.80;85.50;;;;;;5074726;28;20222;-87
2021/10/02 09:52:43;;;;;;;13.17;11.37;;;14.80;85.80;;;;;;5075891;28;20250;-87
2021/10/02 09:55:19;;;;;;;14.10;9.60;;;14.80;85.90;;;;;;5074614;28;20181;-87
2021/10/02 09:57:47;;;;;;;15.63;9.90;;;14.80;85.60;;;;;;5075807;28;20163;-86
2021/10/02 10:00:19;;;;;;;11.70;9.87;;;14.90;84.90;;;;;;5074409;28;20195;-87
2021/10/02 10:02:45;;;;;;;12.30;9.13;;;15.10;85.20;;;;;;5074590;28;20218;-87
2021/10/02 10:05:13;;;;;;;11.53;9.30;;;15.00;84.50;;;;;;5074462;28;20203;-87
2021/10/02 10:07:39;;;;;;;15.10;10.20;;;15.00;84.50;;;;;;5074421;28;20266;-86
2021/10/02 10:10:12;;;;;;;13.70;10.00;;;15.30;85.10;;;;;;5076118;28;20225;-87
2021/10/02 10:12:40;;;;;;;11.80;8.63;;;15.30;84.20;;;;;;5075512;28;20167;-87
2021/10/02 10:15:24;;;;;;;14.87;9.27;;;15.30;83.60;;;;;;5074325;28;20180;-87
2021/10/02 10:17:50;;;;;;;8.13;6.80;;;15.30;84.10;;;;;;5075447;28;20202;-86
2021/10/02 10:20:16;;;;;;;10.50;7.97;;;15.30;82.80;;;;;;5074209;28;20179;-87
2021/10/02 10:22:41;;;;;;;11.43;8.83;;;15.30;83.70;;;;;;5074030;28;20175;-87
2021/10/02 10:25:11;;;;;;;15.70;8.53;;;15.50;84.10;;;;;;5074727;28;20194;-88
2021/10/02 10:27:46;;;;;;;11.13;7.77;;;15.50;83.80;;;;;;5073512;28;20274;-86
2021/10/02 10:30:22;;;;;;;11.00;7.60;;;15.60;82.60;;;;;;5075136;28;20190;-87
2021/10/02 10:32:59;;;;;;;7.32;6.18;;;15.90;83.50;;;;;;5075497;28;20183;-87
2021/10/02 10:35:28;;;;;;;8.38;5.97;;;16.10;82.00;;;;;;5073931;28;20206;-87
2021/10/02 10:37:54;;;;;;;10.37;6.90;;;15.90;81.50;;;;;;5073726;28;20230;-87
2021/10/02 10:40:20;;;;;;;11.10;6.20;;;15.70;81.90;;;;;;5073672;28;20190;-87
2021/10/02 10:42:46;;;;;;;12.20;7.43;;;15.60;82.00;;;;;;5074838;28;20543;-87
2021/10/02 10:45:12;;;;;;;10.57;6.95;;;15.70;82.10;;;;;;5073903;28;20184;-86
2021/10/02 10:47:38;;;;;;;12.07;6.73;;;15.60;82.10;;;;;;5074772;28;20210;-87
2021/10/02 10:50:05;;;;;;;10.82;6.60;;;15.60;81.90;;;;;;5074717;28;20620;-87
2021/10/02 10:52:42;;;;;;;11.77;5.85;;;15.60;82.00;;;;;;5073546;28;20268;-87
2021/10/02 10:55:25;;;;;;;12.57;7.10;;;15.60;81.90;;;;;;5073549;28;20653;-88
2021/10/02 10:57:53;;;;;;;12.27;5.73;;;15.70;82.80;;;;;;5073561;28;20203;-87
2021/10/02 11:00:31;;;;;;;15.20;5.60;;;15.70;82.00;;;;;;5074601;28;20191;-87
2021/10/02 11:03:03;;;;;;;6.67;5.10;;;15.70;82.20;;;;;;5074503;28;20176;-87
2021/10/02 11:05:35;;;;;;;11.82;4.97;;;15.70;80.90;;;;;;5073143;28;20172;-88
2021/10/02 11:08:09;;;;;;;10.57;4.90;;;15.80;80.60;;;;;;5073291;28;20686;-88
2021/10/02 11:10:41;;;;;;;10.27;4.97;;;15.80;80.30;;;;;;5073469;28;20567;-87
2021/10/02 11:13:11;;;;;;;8.20;4.80;;;16.00;81.30;;;;;;5073381;28;20199;-87
2021/10/02 11:15:37;;;;;;;8.40;3.88;;;15.90;80.10;;;;;;5073015;28;20193;-87
2021/10/02 11:18:03;;;;;;;8.50;4.05;;;16.10;79.60;;;;;;5074199;28;20187;-87
2021/10/02 11:20:38;;;;;;;6.78;4.93;;;16.10;79.20;;;;;;5072953;28;20225;-87
2021/10/02 11:23:25;;;;;;;8.90;4.57;;;16.30;79.10;;;;;;5072988;28;20178;-87
2021/10/02 11:26:18;;;;;;;7.82;4.00;;;16.20;79.50;;;;;;5073243;28;20316;-87
2021/10/02 11:28:45;;;;;;;11.68;4.80;;;16.20;79.00;;;;;;5073459;28;20211;-88
2021/10/02 11:31:20;;;;;;;10.63;4.75;;;16.10;79.60;;;;;;5072725;28;20209;-88
2021/10/02 11:33:49;;;;;;;8.77;4.45;;;16.20;79.90;;;;;;5074253;28;20631;-88
2021/10/02 11:36:42;;;;;;;10.48;4.15;;;16.30;79.30;;;;;;5072754;28;20651;-88
2021/10/02 11:39:18;;;;;;;9.35;3.47;;;16.50;78.20;;;;;;5071556;28;20226;-88
2021/10/02 11:41:54;;;;;;;6.60;3.83;;;16.60;78.30;;;;;;5074034;28;20159;-88
2021/10/02 11:44:40;;;;;;;6.80;3.60;;;16.70;78.20;;;;;;5073819;28;20279;-88
2021/10/02 11:47:32;;;;;;;9.10;4.07;;;16.40;77.60;;;;;;5072937;28;20249;-90
2021/10/02 11:50:09;;;;;;;11.52;4.15;;;16.50;78.40;;;;;;5072508;28;20568;-91
2021/10/02 11:52:37;;;;;;;7.47;3.63;;;16.50;78.70;;;;;;5073345;28;20167;-90
2021/10/02 11:55:34;;;;;;;10.57;3.97;;;16.50;77.80;;;;;;5073994;28;20559;-90
2021/10/02 11:58:18;;;;;;;6.38;3.70;;;16.60;77.20;;;;;;5073423;28;20194;-90
2021/10/02 12:00:55;;;;;;;8.43;4.30;;;16.70;77.70;;;;;;5073635;28;20261;-90
2021/10/02 12:03:23;;;;;;;7.65;3.80;;;16.60;76.60;;;;;;5072338;28;20163;-90
2021/10/02 12:05:50;;;;;;;7.55;3.92;;;16.50;77.10;;;;;;5073812;28;20224;-90
2021/10/02 12:08:17;;;;;;;7.07;4.10;;;16.60;77.40;;;;;;5072875;28;20217;-90
2021/10/02 12:11:01;;;;;;;9.77;4.07;;;16.60;76.10;;;;;;5073335;28;20205;-90
2021/10/02 12:13:51;;;;;;;8.20;4.40;;;16.80;76.30;;;;;;5072176;28;20163;-90
2021/10/02 12:16:20;;;;;;;7.78;4.00;;;16.90;75.10;;;;;;5072287;28;20631;-90
2021/10/02 12:18:45;;;;;;;6.72;5.18;;;17.00;73.70;;;;;;5072038;28;20191;-89
2021/10/02 12:21:13;;;;;;;10.30;5.18;;;17.20;74.70;;;;;;5072018;28;20184;-89
2021/10/02 12:23:58;;;;;;;7.72;5.45;;;17.30;73.60;;;;;;5072334;28;20182;-89
2021/10/02 12:26:25;;;;;;;8.68;5.35;;;17.70;73.50;;;;;;5072254;28;20187;-89
2021/10/02 12:29:02;;;;;;;11.35;5.43;;;17.50;72.70;;;;;;5073110;28;20203;-89
2021/10/02 12:31:46;;;;;;;7.82;6.32;;;17.70;72.60;;;;;;5072039;28;20629;-89
2021/10/02 12:34:20;;;;;;;8.32;5.60;;;17.40;72.00;;;;;;5072082;28;20247;-88
2021/10/02 12:36:50;;;;;;;10.82;7.18;;;17.10;74.30;;;;;;5072020;28;20159;-89
2021/10/02 12:39:18;;;;;;;8.82;6.75;;;17.30;74.30;;;;;;5071868;28;20191;-89
2021/10/02 12:41:45;;;;;;;10.98;7.60;;;17.20;74.30;;;;;;5072356;28;20186;-89
2021/10/02 12:44:30;;;;;;;9.20;6.85;;;17.20;73.60;;;;;;5072304;28;20175;-89
2021/10/02 12:46:58;;;;;;;11.13;7.65;;;17.30;74.20;;;;;;5072165;28;20175;-89
2021/10/02 12:49:24;;;;;;;13.88;8.05;;;17.40;74.50;;;;;;5073589;28;20195;-89
2021/10/02 12:51:51;;;;;;;10.00;6.40;;;17.10;74.40;;;;;;5075824;28;20328;-89
2021/10/02 12:54:21;;;;;;;9.88;6.78;;;17.00;72.70;;;;;;5075947;28;20185;-89
2021/10/02 12:57:10;;;;;;;10.93;8.35;;;17.00;73.10;;;;;;5077064;28;20525;-89
2021/10/02 13:00:01;;;;;;;15.98;7.78;;;17.00;74.10;;;;;;5075983;28;20295;-89
2021/10/02 13:02:28;;;;;;;11.98;7.53;;;17.20;73.60;;;;;;5075686;28;20164;-89
2021/10/02 13:04:54;;;;;;;14.13;6.88;;;17.30;73.90;;;;;;5075573;28;20545;-88
2021/10/02 13:07:32;;;;;;;12.43;6.90;;;17.40;73.00;;;;;;5075583;28;20181;-89
2021/10/02 13:10:22;;;;;;;9.30;7.20;;;17.50;73.70;;;;;;5075750;28;20600;-88
2021/10/02 13:12:54;;;;;;;9.65;6.95;;;17.30;72.70;;;;;;5075443;28;20586;-88
2021/10/02 13:15:27;;;;;;;11.20;6.63;;;17.30;72.90;;;;;;5075415;28;20602;-88
2021/10/02 13:18:01;;;;;;;8.23;6.90;;;17.50;73.00;;;;;;5076010;28;20188;-89
2021/10/02 13:20:27;;;;;;;9.93;6.55;;;17.60;72.00;;;;;;5076559;28;20172;-89
2021/10/02 13:22:52;;;;;;;9.10;6.40;;;17.80;72.30;;;;;;5075238;28;20187;-88
2021/10/02 13:25:28;;;;;;;8.90;6.72;;;17.60;71.60;;;;;;5075285;28;20180;-88
2021/10/02 13:27:57;;;;;;;8.73;6.32;;;17.50;73.00;;;;;;5075034;28;20195;-88
2021/10/02 13:30:32;;;;;;;8.70;6.50;;;17.40;73.30;;;;;;5076251;28;20202;-88
2021/10/02 13:32:59;;;;;;;8.23;6.18;;;17.20;73.80;;;;;;5075161;28;20627;-89
2021/10/02 13:35:28;;;;;;;10.15;6.82;;;17.20;74.50;;;;;;5076274;28;20644;-89